createdAt,value
2018-12-23T00:00:29.876Z,98.70
2018-12-23T00:01:33.270Z,98.70
2018-12-23T00:02:36.718Z,98.80
2018-12-23T00:03:40.095Z,98.80
2018-12-23T00:04:43.479Z,98.80
2018-12-23T00:05:46.886Z,98.90
2018-12-23T00:06:50.273Z,99.00
2018-12-23T00:07:53.661Z,99.00
2018-12-23T00:08:57.058Z,99.00
2018-12-23T00:10:00.426Z,99.10
2018-12-23T00:11:03.816Z,99.10
2018-12-23T00:12:07.301Z,99.10
2018-12-23T00:13:10.750Z,99.10
2018-12-23T00:14:14.382Z,99.20
2018-12-23T00:15:17.762Z,99.20
2018-12-23T00:16:21.158Z,99.20
2018-12-23T00:17:24.542Z,99.30
2018-12-23T00:18:27.940Z,99.30
2018-12-23T00:19:31.371Z,99.30
2018-12-23T00:20:34.814Z,99.40
2018-12-23T00:21:38.179Z,99.40
2018-12-23T00:22:41.566Z,99.40
2018-12-23T00:23:44.971Z,99.40
2018-12-23T00:24:48.362Z,99.50
2018-12-23T00:25:51.730Z,99.50
2018-12-23T00:26:55.139Z,99.50
2018-12-23T00:27:58.541Z,99.50
2018-12-23T00:29:01.918Z,99.50
2018-12-23T00:30:06.555Z,99.60
2018-12-23T00:31:10.295Z,99.60
2018-12-23T00:32:13.759Z,99.70
2018-12-23T00:33:17.150Z,99.70
2018-12-23T00:34:20.713Z,99.70
2018-12-23T00:35:24.128Z,99.70
2018-12-23T00:36:27.542Z,99.70
2018-12-23T00:37:30.989Z,99.90
2018-12-23T00:38:34.391Z,99.70
2018-12-23T00:39:37.797Z,99.70
2018-12-23T00:40:41.181Z,99.70
2018-12-23T00:41:44.561Z,99.70
2018-12-23T00:42:48.074Z,99.70
2018-12-23T00:43:51.452Z,99.70
2018-12-23T00:44:55.130Z,99.70
2018-12-23T00:45:58.515Z,99.70
2018-12-23T00:47:01.899Z,99.70
2018-12-23T00:48:05.328Z,99.70
2018-12-23T00:49:08.906Z,99.70
2018-12-23T00:50:12.698Z,99.80
2018-12-23T00:51:16.146Z,99.80
2018-12-23T00:52:19.545Z,99.80
2018-12-23T00:53:22.946Z,99.80
2018-12-23T00:54:26.353Z,99.80
2018-12-23T00:55:29.736Z,99.80
2018-12-23T00:56:33.110Z,99.80
2018-12-23T00:57:36.566Z,99.80
2018-12-23T00:58:39.970Z,99.80
2018-12-23T00:59:43.367Z,99.80
2018-12-23T01:00:46.742Z,99.80
2018-12-23T01:01:50.193Z,99.80
2018-12-23T01:02:53.564Z,99.80
2018-12-23T01:03:57.046Z,99.80
2018-12-23T01:05:00.431Z,99.80
2018-12-23T01:06:03.839Z,99.80
2018-12-23T01:07:07.574Z,99.80
2018-12-23T01:08:11.163Z,99.80
2018-12-23T01:09:14.557Z,99.80
2018-12-23T01:10:17.969Z,99.80
2018-12-23T01:11:21.380Z,99.80
2018-12-23T01:12:24.749Z,99.90
2018-12-23T01:13:28.160Z,99.80
2018-12-23T01:14:31.562Z,99.80
2018-12-23T01:15:34.954Z,99.80
2018-12-23T01:16:38.409Z,99.90
2018-12-23T01:17:41.777Z,99.80
2018-12-23T01:18:45.162Z,99.90
2018-12-23T01:19:48.543Z,99.90
2018-12-23T01:20:51.942Z,99.90
2018-12-23T01:21:55.327Z,99.90
2018-12-23T01:22:58.793Z,99.90
2018-12-23T01:24:02.172Z,99.90
2018-12-23T01:25:06.346Z,99.90
2018-12-23T01:26:09.823Z,99.90
2018-12-23T01:27:13.222Z,99.90
2018-12-23T01:28:16.610Z,99.90
2018-12-23T01:29:20.026Z,99.90
2018-12-23T01:30:23.490Z,99.90
2018-12-23T01:31:27.110Z,99.90
2018-12-23T01:32:30.502Z,99.90
2018-12-23T01:33:33.894Z,99.90
2018-12-23T01:34:37.386Z,99.90
2018-12-23T01:35:40.865Z,99.90
2018-12-23T01:36:44.258Z,99.90
2018-12-23T01:37:47.634Z,99.90
2018-12-23T01:38:51.033Z,99.90
2018-12-23T01:39:54.452Z,99.90
2018-12-23T01:40:57.891Z,99.90
2018-12-23T01:42:01.290Z,99.90
2018-12-23T01:43:04.707Z,99.90
2018-12-23T01:44:08.277Z,99.90
2018-12-23T01:45:11.894Z,99.90
2018-12-23T01:46:15.342Z,99.90
2018-12-23T01:47:18.742Z,99.90
2018-12-23T01:48:22.153Z,99.90
2018-12-23T01:49:25.697Z,99.90
2018-12-23T01:50:29.086Z,99.90
2018-12-23T01:51:32.497Z,99.90
2018-12-23T01:52:35.893Z,99.90
2018-12-23T01:53:39.535Z,99.90
2018-12-23T01:54:42.942Z,99.90
2018-12-23T01:55:46.455Z,99.90
2018-12-23T01:56:49.819Z,99.90
2018-12-23T01:57:53.203Z,99.90
2018-12-23T01:58:56.735Z,99.90
2018-12-23T02:00:00.135Z,99.90
2018-12-23T02:01:03.519Z,99.90
2018-12-23T02:02:06.571Z,99.90
2018-12-23T02:03:10.768Z,99.90
2018-12-23T02:04:14.190Z,99.90
2018-12-23T02:05:17.595Z,99.90
2018-12-23T02:06:21.045Z,99.90
2018-12-23T02:07:24.430Z,99.90
2018-12-23T02:08:27.819Z,99.90
2018-12-23T02:09:31.203Z,99.90
2018-12-23T02:10:34.609Z,99.90
2018-12-23T02:11:37.998Z,99.90
2018-12-23T02:12:41.554Z,99.90
2018-12-23T02:13:44.977Z,99.90
2018-12-23T02:14:48.360Z,99.90
2018-12-23T02:15:51.813Z,99.90
2018-12-23T02:16:55.239Z,99.90
2018-12-23T02:17:58.611Z,99.90
2018-12-23T02:19:02.006Z,99.90
2018-12-23T02:20:05.960Z,99.90
2018-12-23T02:21:10.043Z,99.90
2018-12-23T02:22:13.587Z,99.90
2018-12-23T02:23:16.953Z,99.90
2018-12-23T02:24:20.323Z,99.90
2018-12-23T02:25:23.738Z,99.90
2018-12-23T02:26:27.126Z,99.90
2018-12-23T02:27:30.518Z,99.90
2018-12-23T02:28:33.928Z,99.90
2018-12-23T02:29:37.286Z,99.90
2018-12-23T02:30:40.695Z,99.90
2018-12-23T02:31:44.110Z,99.90
2018-12-23T02:32:47.481Z,99.90
2018-12-23T02:33:50.881Z,99.90
2018-12-23T02:34:54.319Z,99.90
2018-12-23T02:35:57.719Z,99.90
2018-12-23T02:37:01.096Z,99.90
2018-12-23T02:38:04.527Z,99.90
2018-12-23T02:39:09.117Z,99.90
2018-12-23T02:40:12.525Z,99.90
2018-12-23T02:41:15.921Z,99.90
2018-12-23T02:42:19.310Z,99.90
2018-12-23T02:43:22.870Z,99.90
2018-12-23T02:44:26.274Z,99.90
2018-12-23T02:45:29.723Z,99.90
2018-12-23T02:46:33.211Z,99.90
2018-12-23T02:47:36.622Z,99.90
2018-12-23T02:48:39.997Z,99.90
2018-12-23T02:49:43.415Z,99.90
2018-12-23T02:50:46.816Z,99.90
2018-12-23T02:51:50.290Z,99.90
2018-12-23T02:52:53.730Z,99.90
2018-12-23T02:53:57.119Z,99.90
2018-12-23T02:55:00.519Z,99.90
2018-12-23T02:56:03.912Z,99.90
2018-12-23T02:57:07.401Z,99.90
2018-12-23T02:58:11.350Z,99.90
2018-12-23T02:59:14.785Z,99.90
2018-12-23T03:00:18.174Z,99.90
2018-12-23T03:01:21.905Z,99.90
2018-12-23T03:02:25.266Z,99.90
2018-12-23T03:03:28.636Z,99.90
2018-12-23T03:04:32.024Z,99.90
2018-12-23T03:05:35.500Z,99.90
2018-12-23T03:06:38.893Z,99.90
2018-12-23T03:07:42.280Z,99.90
2018-12-23T03:08:45.658Z,99.90
2018-12-23T03:09:49.040Z,99.90
2018-12-23T03:10:52.406Z,99.90
2018-12-23T03:11:55.984Z,99.90
2018-12-23T03:12:59.371Z,99.90
2018-12-23T03:14:02.751Z,99.90
2018-12-23T03:15:06.166Z,99.90
2018-12-23T03:16:09.921Z,99.90
2018-12-23T03:17:13.378Z,99.90
2018-12-23T03:18:16.839Z,99.90
2018-12-23T03:19:20.227Z,99.90
2018-12-23T03:20:23.602Z,99.90
2018-12-23T03:21:27.035Z,99.90
2018-12-23T03:22:30.418Z,99.90
2018-12-23T03:23:33.811Z,99.90
2018-12-23T03:24:37.380Z,99.90
2018-12-23T03:25:40.762Z,99.90
2018-12-23T03:26:44.171Z,99.90
2018-12-23T03:27:47.567Z,99.90
2018-12-23T03:28:51.073Z,99.90
2018-12-23T03:29:54.465Z,99.90
2018-12-23T03:30:58.084Z,99.90
2018-12-23T03:32:01.510Z,99.90
2018-12-23T03:33:04.926Z,99.90
2018-12-23T03:34:09.105Z,99.90
2018-12-23T03:35:12.483Z,99.90
2018-12-23T03:36:15.857Z,99.90
2018-12-23T03:37:19.282Z,99.90
2018-12-23T03:38:22.672Z,99.90
2018-12-23T03:39:26.044Z,99.90
2018-12-23T03:40:29.494Z,99.90
2018-12-23T03:41:32.895Z,99.90
2018-12-23T03:42:36.274Z,99.90
2018-12-23T03:43:39.662Z,99.90
2018-12-23T03:44:43.135Z,99.90
2018-12-23T03:45:46.526Z,99.90
2018-12-23T03:46:51.882Z,99.90
2018-12-23T03:47:55.765Z,99.90
2018-12-23T03:48:59.214Z,99.90
2018-12-23T03:50:02.599Z,99.90
2018-12-23T03:51:06.094Z,99.90
2018-12-23T03:52:09.768Z,99.90
2018-12-23T03:53:13.198Z,99.90
2018-12-23T03:54:16.571Z,99.90
2018-12-23T03:55:19.953Z,99.90
2018-12-23T03:56:23.334Z,99.90
2018-12-23T03:57:26.786Z,99.90
2018-12-23T03:58:30.240Z,99.90
2018-12-23T03:59:33.622Z,99.90
2018-12-23T04:00:37.000Z,99.90
2018-12-23T04:01:40.398Z,99.90
2018-12-23T04:02:43.812Z,99.90
2018-12-23T04:03:47.228Z,99.90
2018-12-23T04:04:50.619Z,99.90
2018-12-23T04:05:53.995Z,99.90
2018-12-23T04:06:57.382Z,99.90
2018-12-23T04:08:00.783Z,99.90
2018-12-23T04:09:06.077Z,99.90
2018-12-23T04:10:09.865Z,99.90
2018-12-23T04:11:13.557Z,99.90
2018-12-23T04:12:16.945Z,99.90
2018-12-23T04:13:20.342Z,99.90
2018-12-23T04:14:23.714Z,99.90
2018-12-23T04:15:27.095Z,99.90
2018-12-23T04:16:30.537Z,99.90
2018-12-23T04:17:34.174Z,99.90
2018-12-23T04:18:37.571Z,99.90
2018-12-23T04:19:40.955Z,99.90
2018-12-23T04:20:44.335Z,99.90
2018-12-23T04:21:47.722Z,99.90
2018-12-23T04:22:51.093Z,99.90
2018-12-23T04:23:54.633Z,99.90
2018-12-23T04:24:58.010Z,99.90
2018-12-23T04:26:01.402Z,99.90
2018-12-23T04:27:04.872Z,99.90
2018-12-23T04:28:08.468Z,99.90
2018-12-23T04:29:12.072Z,99.90
2018-12-23T04:30:15.491Z,99.90
2018-12-23T04:31:18.922Z,99.90
2018-12-23T04:32:22.306Z,99.90
2018-12-23T04:33:25.670Z,99.90
2018-12-23T04:34:29.100Z,99.90
2018-12-23T04:35:32.465Z,99.90
2018-12-23T04:36:36.082Z,99.90
2018-12-23T04:37:39.602Z,99.90
2018-12-23T04:38:42.984Z,99.90
2018-12-23T04:39:46.407Z,99.90
2018-12-23T04:40:49.807Z,99.90
2018-12-23T04:41:53.192Z,99.90
2018-12-23T04:42:56.770Z,99.90
2018-12-23T04:44:00.194Z,99.90
2018-12-23T04:45:03.586Z,99.90
2018-12-23T04:46:07.030Z,99.90
2018-12-23T04:47:10.898Z,99.90
2018-12-23T04:48:14.251Z,99.90
2018-12-23T04:49:17.633Z,99.90
2018-12-23T04:50:21.023Z,99.90
2018-12-23T04:51:24.430Z,99.90
2018-12-23T04:52:27.825Z,99.90
2018-12-23T04:53:31.203Z,99.90
2018-12-23T04:54:34.597Z,99.90
2018-12-23T04:55:37.995Z,99.90
2018-12-23T04:56:41.485Z,99.90
2018-12-23T04:57:44.889Z,99.90
2018-12-23T04:58:48.312Z,99.90
2018-12-23T04:59:51.769Z,99.90
2018-12-23T05:00:55.170Z,99.90
2018-12-23T05:01:58.545Z,99.90
2018-12-23T05:03:01.997Z,99.90
2018-12-23T05:04:05.398Z,99.90
2018-12-23T05:05:09.205Z,99.90
2018-12-23T05:06:12.589Z,99.90
2018-12-23T05:07:15.974Z,99.90
2018-12-23T05:08:19.474Z,99.90
2018-12-23T05:09:23.021Z,99.90
2018-12-23T05:10:26.406Z,99.90
2018-12-23T05:11:29.802Z,99.90
2018-12-23T05:12:33.203Z,99.90
2018-12-23T05:13:36.602Z,99.90
2018-12-23T05:14:40.029Z,99.90
2018-12-23T05:15:43.464Z,99.90
2018-12-23T05:16:46.876Z,99.90
2018-12-23T05:17:50.253Z,99.90
2018-12-23T05:18:53.623Z,99.90
2018-12-23T05:19:57.015Z,99.90
2018-12-23T05:21:00.424Z,99.90
2018-12-23T05:22:03.823Z,99.90
2018-12-23T05:23:07.257Z,99.90
2018-12-23T05:24:11.123Z,99.90
2018-12-23T05:25:14.499Z,99.90
2018-12-23T05:26:17.928Z,99.90
2018-12-23T05:27:21.317Z,99.90
2018-12-23T05:28:24.697Z,99.90
2018-12-23T05:29:28.115Z,99.90
2018-12-23T05:30:31.497Z,99.90
2018-12-23T05:31:34.910Z,99.90
2018-12-23T05:32:38.290Z,99.90
2018-12-23T05:33:41.679Z,99.90
2018-12-23T05:34:45.114Z,99.90
2018-12-23T05:35:48.487Z,99.90
2018-12-23T05:36:52.773Z,99.90
2018-12-23T05:37:56.377Z,99.90
2018-12-23T05:38:59.766Z,99.90
2018-12-23T05:40:03.178Z,99.90
2018-12-23T05:41:06.546Z,99.90
2018-12-23T05:42:10.370Z,99.90
2018-12-23T05:43:13.773Z,99.90
2018-12-23T05:44:17.150Z,99.90
2018-12-23T05:45:20.534Z,99.90
2018-12-23T05:46:23.904Z,99.90
2018-12-23T05:47:27.337Z,99.90
2018-12-23T05:48:30.811Z,99.90
2018-12-23T05:49:34.196Z,99.90
2018-12-23T05:50:37.574Z,99.90
2018-12-23T05:51:40.954Z,99.90
2018-12-23T05:52:44.354Z,99.90
2018-12-23T05:53:47.819Z,99.90
2018-12-23T05:54:51.274Z,99.90
2018-12-23T05:55:53.626Z,99.90
2018-12-23T05:56:57.035Z,99.90
2018-12-23T05:58:00.461Z,99.90
2018-12-23T05:59:03.854Z,99.90
2018-12-23T06:00:07.467Z,99.90
2018-12-23T06:01:10.855Z,99.90
2018-12-23T06:02:14.375Z,99.90
2018-12-23T06:03:17.894Z,99.90
2018-12-23T06:04:21.279Z,99.90
2018-12-23T06:05:24.687Z,99.90
2018-12-23T06:06:28.088Z,99.90
2018-12-23T06:07:31.546Z,99.90
2018-12-23T06:08:34.944Z,99.90
2018-12-23T06:09:38.330Z,99.90
2018-12-23T06:10:41.713Z,99.90
2018-12-23T06:11:45.099Z,99.90
2018-12-23T06:12:48.516Z,99.90
2018-12-23T06:13:51.930Z,99.90
2018-12-23T06:14:55.302Z,99.90
2018-12-23T06:15:58.686Z,99.90
2018-12-23T06:17:02.062Z,99.90
2018-12-23T06:18:05.437Z,99.90
2018-12-23T06:19:09.605Z,99.90
2018-12-23T06:20:13.002Z,99.90
2018-12-23T06:21:16.377Z,99.90
2018-12-23T06:22:19.763Z,99.90
2018-12-23T06:23:23.154Z,99.90
2018-12-23T06:24:26.571Z,99.90
2018-12-23T06:25:30.010Z,99.90
2018-12-23T06:26:33.381Z,99.90
2018-12-23T06:27:36.842Z,99.90
2018-12-23T06:28:40.230Z,99.90
2018-12-23T06:29:43.618Z,99.90
2018-12-23T06:30:46.994Z,99.90
2018-12-23T06:31:50.413Z,99.90
2018-12-23T06:32:53.876Z,99.90
2018-12-23T06:33:57.266Z,99.90
2018-12-23T06:35:00.854Z,99.90
2018-12-23T06:36:04.229Z,99.90
2018-12-23T06:37:10.357Z,99.90
2018-12-23T06:38:13.268Z,99.90
2018-12-23T06:39:17.516Z,99.90
2018-12-23T06:40:20.898Z,99.90
2018-12-23T06:41:24.286Z,99.90
2018-12-23T06:42:27.663Z,99.90
2018-12-23T06:43:31.079Z,99.90
2018-12-23T06:44:34.449Z,99.90
2018-12-23T06:45:37.822Z,99.90
2018-12-23T06:46:41.198Z,99.90
2018-12-23T06:47:44.566Z,99.90
2018-12-23T06:48:47.962Z,99.90
2018-12-23T06:49:51.355Z,99.90
2018-12-23T06:50:54.757Z,99.90
2018-12-23T06:51:58.131Z,99.90
2018-12-23T06:53:01.598Z,99.90
2018-12-23T06:54:05.007Z,99.90
2018-12-23T06:55:08.647Z,99.90
2018-12-23T06:56:12.243Z,99.90
2018-12-23T06:57:15.637Z,99.90
2018-12-23T06:58:19.014Z,99.90
2018-12-23T06:59:22.551Z,99.90
2018-12-23T07:00:25.919Z,99.90
2018-12-23T07:01:29.303Z,99.90
2018-12-23T07:02:32.698Z,99.80
2018-12-23T07:03:36.077Z,99.90
2018-12-23T07:04:39.498Z,99.80
2018-12-23T07:05:42.926Z,99.90
2018-12-23T07:06:46.313Z,99.80
2018-12-23T07:07:49.691Z,99.80
2018-12-23T07:08:53.086Z,99.80
2018-12-23T07:09:56.466Z,99.80
2018-12-23T07:10:59.849Z,99.80
2018-12-23T07:12:03.270Z,99.80
2018-12-23T07:13:06.669Z,99.80
2018-12-23T07:14:10.803Z,99.80
2018-12-23T07:15:14.188Z,99.80
2018-12-23T07:16:17.567Z,99.80
2018-12-23T07:17:20.943Z,99.80
2018-12-23T07:18:24.486Z,99.70
2018-12-23T07:19:27.877Z,99.70
2018-12-23T07:20:31.242Z,99.70
2018-12-23T07:21:34.798Z,99.80
2018-12-23T07:22:38.179Z,99.80
2018-12-23T07:23:41.562Z,99.80
2018-12-23T07:24:44.966Z,99.80
2018-12-23T07:25:48.358Z,99.70
2018-12-23T07:26:51.746Z,99.90
2018-12-23T07:27:55.152Z,99.70
2018-12-23T07:28:58.615Z,99.70
2018-12-23T07:30:02.006Z,99.70
2018-12-23T07:31:05.626Z,99.90
2018-12-23T07:32:09.485Z,99.70
2018-12-23T07:33:12.978Z,99.70
2018-12-23T07:34:16.392Z,99.70
2018-12-23T07:35:19.794Z,99.70
2018-12-23T07:36:23.182Z,99.60
2018-12-23T07:37:27.672Z,99.40
2018-12-23T07:38:31.642Z,99.70
2018-12-23T07:39:35.047Z,99.60
2018-12-23T07:40:38.480Z,99.60
2018-12-23T07:41:41.865Z,99.70
2018-12-23T07:42:45.297Z,99.70
2018-12-23T07:43:48.684Z,99.70
2018-12-23T07:44:52.138Z,99.70
2018-12-23T07:45:55.566Z,99.60
2018-12-23T07:46:58.989Z,99.70
2018-12-23T07:48:02.381Z,99.70
2018-12-23T07:49:06.496Z,99.70
2018-12-23T07:50:10.370Z,99.70
2018-12-23T07:51:14.027Z,99.70
2018-12-23T07:52:17.405Z,99.70
2018-12-23T07:53:21.791Z,99.70
2018-12-23T07:54:26.698Z,99.70
2018-12-23T07:55:31.897Z,99.70
2018-12-23T07:56:36.617Z,99.70
2018-12-23T07:57:41.406Z,99.70
2018-12-23T07:58:46.554Z,99.70
2018-12-23T07:59:58.521Z,99.70
2018-12-23T08:01:02.796Z,99.70
2018-12-23T08:02:08.776Z,99.70
2018-12-23T08:03:12.295Z,99.70
2018-12-23T08:04:16.408Z,99.70
2018-12-23T08:05:21.807Z,99.60
2018-12-23T08:06:26.692Z,99.60
2018-12-23T08:07:36.079Z,99.60
2018-12-23T08:08:36.458Z,99.60
2018-12-23T08:09:39.867Z,99.60
2018-12-23T08:10:43.278Z,99.60
2018-12-23T08:11:46.657Z,99.60
2018-12-23T08:12:50.180Z,99.90
2018-12-23T08:13:53.566Z,99.90
2018-12-23T08:14:56.943Z,99.60
2018-12-23T08:16:02.424Z,99.70
2018-12-23T08:17:06.115Z,99.60
2018-12-23T08:18:09.683Z,99.70
2018-12-23T08:19:13.093Z,99.60
2018-12-23T08:20:16.491Z,99.60
2018-12-23T08:21:20.030Z,99.90
2018-12-23T08:22:23.433Z,99.90
2018-12-23T08:23:26.811Z,99.60
2018-12-23T08:24:30.257Z,99.60
2018-12-23T08:25:35.700Z,99.60
2018-12-23T08:26:39.076Z,99.60
2018-12-23T08:27:42.444Z,99.60
2018-12-23T08:28:45.822Z,99.80
2018-12-23T08:29:49.215Z,99.50
2018-12-23T08:30:52.590Z,99.50
2018-12-23T08:31:56.039Z,99.40
2018-12-23T08:32:59.555Z,99.50
2018-12-23T08:34:02.964Z,99.50
2018-12-23T08:35:06.458Z,99.40
2018-12-23T08:36:10.056Z,99.40
2018-12-23T08:37:13.471Z,99.40
2018-12-23T08:38:16.854Z,99.50
2018-12-23T08:39:20.250Z,99.40
2018-12-23T08:40:23.647Z,99.40
2018-12-23T08:41:27.075Z,99.40
2018-12-23T08:42:30.490Z,99.40
2018-12-23T08:43:33.859Z,99.40
2018-12-23T08:44:37.232Z,99.40
2018-12-23T08:45:40.652Z,99.40
2018-12-23T08:46:44.022Z,99.40
2018-12-23T08:47:47.468Z,99.40
2018-12-23T08:48:50.853Z,99.40
2018-12-23T08:49:54.299Z,99.30
2018-12-23T08:50:57.734Z,99.40
2018-12-23T08:52:01.111Z,99.30
2018-12-23T08:53:04.546Z,99.30
2018-12-23T08:54:07.954Z,99.20
2018-12-23T08:55:11.516Z,99.30
2018-12-23T08:56:15.074Z,99.20
2018-12-23T08:57:18.463Z,99.40
2018-12-23T08:58:22.019Z,99.30
2018-12-23T08:59:25.390Z,99.30
2018-12-23T09:00:28.779Z,99.30
2018-12-23T09:01:32.187Z,99.20
2018-12-23T09:02:35.619Z,99.20
2018-12-23T09:03:39.018Z,99.20
2018-12-23T09:04:42.479Z,99.20
2018-12-23T09:05:45.865Z,99.20
2018-12-23T09:06:49.265Z,99.10
2018-12-23T09:07:53.090Z,99.10
2018-12-23T09:08:56.766Z,99.10
2018-12-23T09:10:00.164Z,99.30
2018-12-23T09:11:03.614Z,99.00
2018-12-23T09:12:07.006Z,99.00
2018-12-23T09:13:11.270Z,99.00
2018-12-23T09:14:14.898Z,98.90
2018-12-23T09:15:18.284Z,98.90
2018-12-23T09:16:21.677Z,98.90
2018-12-23T09:17:25.181Z,98.90
2018-12-23T09:18:28.561Z,99.00
2018-12-23T09:19:31.962Z,98.80
2018-12-23T09:20:35.410Z,98.80
2018-12-23T09:21:39.803Z,98.80
2018-12-23T09:22:43.183Z,98.80
2018-12-23T09:23:46.571Z,98.70
2018-12-23T09:24:49.971Z,98.70
2018-12-23T09:25:53.374Z,98.70
2018-12-23T09:26:56.782Z,98.60
2018-12-23T09:28:00.165Z,98.60
2018-12-23T09:29:03.551Z,98.60
2018-12-23T09:30:07.096Z,98.60
2018-12-23T09:31:10.959Z,98.60
2018-12-23T09:32:14.654Z,98.60
2018-12-23T09:33:18.188Z,98.80
2018-12-23T09:34:21.627Z,98.50
2018-12-23T09:35:25.006Z,98.50
2018-12-23T09:36:28.483Z,98.50
2018-12-23T09:37:31.861Z,98.50
2018-12-23T09:38:35.255Z,98.40
2018-12-23T09:39:38.625Z,98.40
2018-12-23T09:40:42.411Z,98.40
2018-12-23T09:41:46.353Z,98.40
2018-12-23T09:42:49.764Z,98.30
2018-12-23T09:43:53.208Z,98.30
2018-12-23T09:44:56.652Z,98.30
2018-12-23T09:46:00.055Z,98.20
2018-12-23T09:47:03.463Z,98.20
2018-12-23T09:48:06.950Z,98.20
2018-12-23T09:49:10.395Z,98.50
2018-12-23T09:50:13.796Z,98.20
2018-12-23T09:51:17.254Z,98.20
2018-12-23T09:52:20.630Z,98.10
2018-12-23T09:53:24.046Z,98.10
2018-12-23T09:54:28.824Z,98.30
2018-12-23T09:55:34.009Z,98.00
2018-12-23T09:56:43.170Z,98.00
2018-12-23T09:57:50.249Z,98.20
2018-12-23T09:58:56.112Z,97.90
2018-12-23T10:00:03.538Z,97.90
2018-12-23T10:01:08.228Z,97.90
2018-12-23T10:02:14.074Z,97.90
2018-12-23T10:03:21.224Z,97.90
2018-12-23T10:04:27.801Z,97.80
2018-12-23T10:05:34.685Z,97.80
2018-12-23T10:06:42.110Z,97.70
2018-12-23T10:07:49.544Z,97.70
2018-12-23T10:08:55.499Z,97.70
2018-12-23T10:10:01.476Z,97.70
2018-12-23T10:11:07.912Z,97.70
2018-12-23T10:12:13.266Z,97.70
2018-12-23T10:13:18.081Z,97.70
2018-12-23T10:14:23.478Z,98.00
2018-12-23T10:15:28.025Z,97.70
2018-12-23T10:16:33.676Z,97.60
2018-12-23T10:17:39.367Z,97.60
2018-12-23T10:18:47.898Z,97.50
2018-12-23T10:19:59.588Z,97.60
2018-12-23T10:21:02.950Z,97.60
2018-12-23T10:22:06.355Z,97.50
2018-12-23T10:23:10.146Z,97.50
2018-12-23T10:24:14.046Z,97.50
2018-12-23T10:25:17.560Z,97.50
2018-12-23T10:26:20.951Z,97.50
2018-12-23T10:27:24.318Z,97.50
2018-12-23T10:28:27.771Z,97.50
2018-12-23T10:29:31.174Z,97.50
2018-12-23T10:30:34.570Z,97.50
2018-12-23T10:31:38.099Z,97.80
2018-12-23T10:32:41.479Z,97.50
2018-12-23T10:33:44.887Z,97.50
2018-12-23T10:34:48.305Z,97.50
2018-12-23T10:35:51.823Z,97.50
2018-12-23T10:36:55.185Z,97.40
2018-12-23T10:37:58.690Z,97.40
2018-12-23T10:39:02.194Z,97.40
2018-12-23T10:40:05.973Z,97.40
2018-12-23T10:41:09.648Z,97.40
2018-12-23T10:42:13.455Z,97.40
2018-12-23T10:43:16.882Z,97.50
2018-12-23T10:44:20.338Z,97.60
2018-12-23T10:45:23.757Z,97.30
2018-12-23T10:46:27.179Z,97.30
2018-12-23T10:47:30.566Z,97.30
2018-12-23T10:48:33.967Z,97.30
2018-12-23T10:49:37.358Z,97.30
2018-12-23T10:50:40.759Z,97.30
2018-12-23T10:51:44.143Z,97.30
2018-12-23T10:52:47.673Z,97.30
2018-12-23T10:53:51.318Z,97.30
2018-12-23T10:54:56.410Z,97.30
2018-12-23T10:56:00.710Z,97.30
2018-12-23T10:57:04.087Z,97.30
2018-12-23T10:58:08.129Z,97.30
2018-12-23T10:59:12.110Z,97.30
2018-12-23T11:00:15.563Z,97.40
2018-12-23T11:01:18.971Z,97.70
2018-12-23T11:02:22.325Z,97.40
2018-12-23T11:03:25.796Z,97.40
2018-12-23T11:04:29.391Z,97.50
2018-12-23T11:05:32.855Z,97.60
2018-12-23T11:06:36.292Z,97.70
2018-12-23T11:07:39.790Z,97.70
2018-12-23T11:08:43.242Z,97.80
2018-12-23T11:09:46.629Z,97.90
2018-12-23T11:10:50.073Z,98.20
2018-12-23T11:11:53.443Z,98.00
2018-12-23T11:12:56.844Z,98.10
2018-12-23T11:14:00.236Z,98.20
2018-12-23T11:15:03.865Z,98.40
2018-12-23T11:16:07.657Z,98.40
2018-12-23T11:17:11.382Z,98.50
2018-12-23T11:18:14.767Z,98.80
2018-12-23T11:19:18.428Z,98.60
2018-12-23T11:20:21.882Z,98.60
2018-12-23T11:21:25.268Z,98.70
2018-12-23T11:22:28.670Z,98.70
2018-12-23T11:23:32.167Z,98.80
2018-12-23T11:24:35.556Z,99.10
2018-12-23T11:25:38.949Z,98.80
2018-12-23T11:26:42.335Z,98.90
2018-12-23T11:27:45.744Z,98.90
2018-12-23T11:28:49.114Z,99.00
2018-12-23T11:29:52.626Z,99.00
2018-12-23T11:30:56.081Z,99.10
2018-12-23T11:31:59.471Z,99.10
2018-12-23T11:33:02.929Z,99.10
2018-12-23T11:34:06.329Z,99.20
2018-12-23T11:35:09.955Z,99.50
2018-12-23T11:36:13.581Z,99.30
2018-12-23T11:37:17.015Z,99.30
2018-12-23T11:38:20.409Z,99.30
2018-12-23T11:39:23.880Z,99.40
2018-12-23T11:40:27.328Z,99.50
2018-12-23T11:41:30.722Z,99.50
2018-12-23T11:42:34.159Z,99.60
2018-12-23T11:43:37.554Z,99.60
2018-12-23T11:44:40.952Z,99.60
2018-12-23T11:45:44.336Z,99.70
2018-12-23T11:46:47.740Z,99.70
2018-12-23T11:47:51.115Z,99.70
2018-12-23T11:48:54.833Z,99.70
2018-12-23T11:49:58.233Z,99.80
2018-12-23T11:51:01.671Z,99.80
2018-12-23T11:52:05.093Z,99.80
2018-12-23T11:53:08.646Z,99.80
2018-12-23T11:54:12.404Z,99.90
2018-12-23T11:55:15.829Z,99.90
2018-12-23T11:56:19.374Z,99.90
2018-12-23T11:57:22.776Z,99.90
2018-12-23T11:58:26.156Z,99.90
2018-12-23T11:59:29.522Z,99.90
2018-12-23T12:00:32.987Z,99.90
2018-12-23T12:01:36.385Z,99.90
2018-12-23T12:02:39.950Z,99.90
2018-12-23T12:03:43.447Z,99.90
2018-12-23T12:04:46.857Z,99.90
2018-12-23T12:05:50.245Z,99.90
2018-12-23T12:06:53.651Z,99.90
2018-12-23T12:07:57.034Z,99.90
2018-12-23T12:09:06.933Z,99.90
2018-12-23T12:10:06.343Z,99.90
2018-12-23T12:11:10.011Z,99.90
2018-12-23T12:12:13.747Z,99.90
2018-12-23T12:13:17.306Z,99.90
2018-12-23T12:14:20.695Z,99.90
2018-12-23T12:15:24.110Z,99.80
2018-12-23T12:16:27.522Z,99.80
2018-12-23T12:17:30.919Z,99.80
2018-12-23T12:18:34.405Z,99.80
2018-12-23T12:19:37.903Z,99.80
2018-12-23T12:20:41.322Z,99.80
2018-12-23T12:21:44.808Z,99.70
2018-12-23T12:22:48.223Z,99.70
2018-12-23T12:23:51.669Z,99.70
2018-12-23T12:24:55.064Z,99.70
2018-12-23T12:25:58.458Z,99.70
2018-12-23T12:27:01.837Z,99.70
2018-12-23T12:28:05.313Z,99.90
2018-12-23T12:29:10.929Z,99.70
2018-12-23T12:30:14.969Z,99.80
2018-12-23T12:31:18.386Z,99.80
2018-12-23T12:32:21.775Z,99.80
2018-12-23T12:33:25.206Z,99.80
2018-12-23T12:34:28.655Z,99.90
2018-12-23T12:35:32.261Z,99.90
2018-12-23T12:36:35.743Z,99.90
2018-12-23T12:37:39.129Z,99.90
2018-12-23T12:38:42.538Z,99.90
2018-12-23T12:39:45.918Z,99.90
2018-12-23T12:40:49.353Z,99.90
2018-12-23T12:41:52.767Z,99.90
2018-12-23T12:42:56.241Z,99.90
2018-12-23T12:43:59.635Z,99.90
2018-12-23T12:45:03.022Z,99.90
2018-12-23T12:46:06.422Z,99.80
2018-12-23T12:47:10.360Z,99.80
2018-12-23T12:48:13.784Z,99.80
2018-12-23T12:49:17.330Z,99.80
2018-12-23T12:50:20.711Z,99.80
2018-12-23T12:51:24.090Z,99.80
2018-12-23T12:52:30.565Z,99.80
2018-12-23T12:53:39.864Z,99.90
2018-12-23T12:54:49.041Z,99.90
2018-12-23T12:55:58.778Z,99.90
2018-12-23T12:57:07.591Z,99.70
2018-12-23T12:58:15.994Z,99.90
2018-12-23T12:59:21.735Z,99.90
2018-12-23T13:00:29.075Z,99.90
2018-12-23T13:01:38.681Z,99.90
2018-12-23T13:02:46.946Z,99.90
2018-12-23T13:03:55.144Z,99.90
2018-12-23T13:05:00.559Z,99.90
2018-12-23T13:06:07.969Z,99.90
2018-12-23T13:07:14.062Z,99.90
2018-12-23T13:08:20.317Z,99.90
2018-12-23T13:09:28.657Z,99.90
2018-12-23T13:10:35.421Z,99.90
2018-12-23T13:11:42.903Z,99.90
2018-12-23T13:12:48.572Z,99.90
2018-12-23T13:14:01.224Z,99.90
2018-12-23T13:15:09.150Z,99.90
2018-12-23T13:16:22.366Z,99.90
2018-12-23T13:17:30.444Z,99.90
2018-12-23T13:18:34.155Z,99.90
2018-12-23T13:19:37.552Z,99.90
2018-12-23T13:22:06.914Z,99.90
2018-12-23T13:23:14.726Z,99.90
2018-12-23T13:24:18.230Z,99.90
2018-12-23T13:25:23.983Z,99.90
2018-12-23T13:26:27.937Z,99.90
2018-12-23T13:27:31.968Z,99.90
2018-12-23T13:28:37.278Z,99.90
2018-12-23T13:29:43.255Z,99.90
2018-12-23T13:30:48.277Z,99.90
2018-12-23T13:31:55.976Z,99.90
2018-12-23T13:33:00.125Z,99.90
2018-12-23T13:34:03.618Z,99.90
2018-12-23T13:35:08.102Z,99.90
2018-12-23T13:36:13.953Z,99.90
2018-12-23T13:37:19.584Z,99.90
2018-12-23T13:38:27.583Z,99.90
2018-12-23T13:39:31.058Z,99.90
2018-12-23T13:40:46.043Z,99.90
2018-12-23T13:42:02.764Z,99.90
2018-12-23T13:43:23.096Z,99.90